createdAt,value
2018-07-24T02:50:32.015Z,24.77
2018-07-24T02:53:00.560Z,24.27
2018-07-24T02:55:29.073Z,24.20
2018-07-24T02:57:57.654Z,24.23
2018-07-24T03:00:26.283Z,21.73
2018-07-24T03:02:54.831Z,22.23
2018-07-24T03:05:23.454Z,22.93
2018-07-24T03:07:52.131Z,22.02
2018-07-24T03:10:20.621Z,20.87
2018-07-24T03:12:49.160Z,21.37
2018-07-24T03:15:17.722Z,21.90
2018-07-24T03:17:46.245Z,20.43
2018-07-24T03:20:14.829Z,19.80
2018-07-24T03:22:43.635Z,20.23
2018-07-24T03:25:12.212Z,19.50
2018-07-24T03:27:40.697Z,18.60
2018-07-24T03:30:09.256Z,19.92
2018-07-24T03:32:37.936Z,19.17
2018-07-24T03:35:06.467Z,19.33
2018-07-24T03:37:35.007Z,18.12
2018-07-24T03:40:03.760Z,19.57
2018-07-24T03:42:32.257Z,19.43
2018-07-24T03:45:00.853Z,20.37
2018-07-24T03:47:29.619Z,21.00
2018-07-24T03:49:58.179Z,20.80
2018-07-24T03:52:26.752Z,21.77
2018-07-24T03:54:55.353Z,24.85
2018-07-24T03:57:23.951Z,25.48
2018-07-24T03:59:52.448Z,23.67
2018-07-24T04:02:21.044Z,27.05
2018-07-24T04:04:49.511Z,24.43
2018-07-24T04:07:18.161Z,26.20
2018-07-24T04:09:47.040Z,26.23
2018-07-24T04:12:15.604Z,24.70
2018-07-24T04:14:44.292Z,28.90
2018-07-24T04:17:12.823Z,25.77
2018-07-24T04:19:41.353Z,31.00
2018-07-24T04:22:09.904Z,31.40
2018-07-24T04:24:38.464Z,27.80
2018-07-24T04:27:07.234Z,30.43
2018-07-24T04:29:35.760Z,29.90
2018-07-24T04:32:04.339Z,26.43
2018-07-24T04:34:32.835Z,29.27
2018-07-24T04:37:01.356Z,27.95
2018-07-24T04:39:30.304Z,29.27
2018-07-24T04:41:58.874Z,26.55
2018-07-24T04:44:27.422Z,27.58
2018-07-24T04:46:56.046Z,26.33
2018-07-24T04:49:24.556Z,26.82
2018-07-24T04:51:53.081Z,27.40
2018-07-24T04:54:21.861Z,23.13
2018-07-24T04:56:50.454Z,25.23
2018-07-24T04:59:19.047Z,25.07
2018-07-24T05:01:47.540Z,24.90
2018-07-24T05:04:16.208Z,25.55
2018-07-24T05:06:44.959Z,24.30
2018-07-24T05:09:14.363Z,25.43
2018-07-24T05:11:43.530Z,26.40
2018-07-24T05:14:12.708Z,25.00
2018-07-24T05:16:41.876Z,24.53
2018-07-24T05:19:10.393Z,24.53
2018-07-24T05:21:38.944Z,23.95
2018-07-24T05:24:07.659Z,22.05
2018-07-24T05:26:36.297Z,23.53
2018-07-24T05:29:04.832Z,23.30
2018-07-24T05:31:33.579Z,21.10
2018-07-24T05:34:02.063Z,24.20
2018-07-24T05:36:30.689Z,23.15
2018-07-24T05:38:59.188Z,19.70
2018-07-24T05:41:27.807Z,21.50
2018-07-24T05:43:56.725Z,21.52
2018-07-24T05:46:25.198Z,22.22
2018-07-24T05:48:54.036Z,22.57
2018-07-24T05:51:22.668Z,22.17
2018-07-24T05:53:51.332Z,18.80
2018-07-24T05:56:19.858Z,18.40
2018-07-24T05:58:48.447Z,21.57
2018-07-24T06:01:17.033Z,21.80
2018-07-24T06:03:45.661Z,19.80
2018-07-24T06:06:14.249Z,20.80
2018-07-24T06:08:42.805Z,17.17
2018-07-24T06:11:11.344Z,22.65
2018-07-24T06:13:40.264Z,21.07
2018-07-24T06:16:08.823Z,22.73
2018-07-24T06:18:37.377Z,18.60
2018-07-24T06:21:06.006Z,23.07
2018-07-24T06:23:34.764Z,21.30
2018-07-24T06:26:03.623Z,20.60
2018-07-24T06:28:32.299Z,22.97
2018-07-24T06:31:00.824Z,20.60
2018-07-24T06:33:29.494Z,20.50
2018-07-24T06:35:58.000Z,22.20
2018-07-24T06:38:26.474Z,21.60
2018-07-24T06:40:55.021Z,22.00
2018-07-24T06:43:23.496Z,20.97
2018-07-24T06:45:52.004Z,21.40
2018-07-24T06:48:20.520Z,21.97
2018-07-24T06:50:49.402Z,20.33
2018-07-24T06:53:17.599Z,18.53
2018-07-24T06:55:46.120Z,22.27
2018-07-24T06:58:14.645Z,21.30
2018-07-24T07:00:43.247Z,21.52
2018-07-24T07:03:11.790Z,22.07
2018-07-24T07:05:40.318Z,22.42
2018-07-24T07:08:08.939Z,23.07
2018-07-24T07:10:37.476Z,22.13
2018-07-24T07:13:06.220Z,22.45
2018-07-24T07:15:34.729Z,21.67
2018-07-24T07:18:03.272Z,20.30
2018-07-24T07:20:32.129Z,19.57
2018-07-24T07:23:00.731Z,19.03
2018-07-24T07:25:29.237Z,18.43
2018-07-24T07:27:57.834Z,20.27
2018-07-24T07:30:26.494Z,21.50
2018-07-24T07:32:55.088Z,19.70
2018-07-24T07:35:23.619Z,20.37
2018-07-24T07:37:52.271Z,18.70
2018-07-24T07:40:20.807Z,19.52
2018-07-24T07:42:49.507Z,19.37
2018-07-24T07:45:18.134Z,19.90
2018-07-24T07:47:46.676Z,19.40
2018-07-24T07:50:15.322Z,20.10
2018-07-24T07:52:43.853Z,19.48
2018-07-24T07:55:12.367Z,18.55
2018-07-24T07:57:41.088Z,18.87
2018-07-24T08:00:09.708Z,17.27
2018-07-24T08:02:38.348Z,18.27
2018-07-24T08:05:07.085Z,17.60
2018-07-24T08:07:35.579Z,17.98
2018-07-24T08:10:04.295Z,15.23
2018-07-24T08:12:32.823Z,14.10
2018-07-24T08:15:02.844Z,13.62
2018-07-24T08:17:31.489Z,13.58
2018-07-24T08:20:00.300Z,13.23
2018-07-24T08:22:29.027Z,14.90
2018-07-24T08:24:57.641Z,15.25
2018-07-24T08:27:26.171Z,14.23
2018-07-24T08:29:54.812Z,14.03
2018-07-24T08:32:23.320Z,12.80
2018-07-24T08:34:52.156Z,13.53
2018-07-24T08:37:20.914Z,12.82
2018-07-24T08:39:49.538Z,12.90
2018-07-24T08:42:18.295Z,12.60
2018-07-24T08:44:46.950Z,12.75
2018-07-24T08:47:15.542Z,12.23
2018-07-24T08:49:43.711Z,11.70
2018-07-24T08:52:12.292Z,11.40
2018-07-24T08:54:41.033Z,11.38
2018-07-24T08:57:09.554Z,11.50
2018-07-24T08:59:38.142Z,11.90
2018-07-24T09:02:07.088Z,12.00
2018-07-24T09:04:35.607Z,11.00
2018-07-24T09:21:51.900Z,9.73
2018-07-24T09:24:20.627Z,10.40
2018-07-24T09:26:49.270Z,10.10
2018-07-24T09:29:17.801Z,9.63
2018-07-24T09:31:46.417Z,8.93
2018-07-24T09:34:15.214Z,9.45
2018-07-24T09:36:43.803Z,10.03
2018-07-24T09:39:12.404Z,9.40
2018-07-24T09:41:41.093Z,8.78
2018-07-24T09:44:09.668Z,8.65
2018-07-24T09:46:38.354Z,8.80
2018-07-24T09:49:07.011Z,8.78
2018-07-24T09:51:35.584Z,9.13
2018-07-24T09:54:04.093Z,9.03
2018-07-24T09:56:32.740Z,9.10
2018-07-24T09:59:01.231Z,9.00
2018-07-24T10:01:33.024Z,9.23
2018-07-24T10:04:02.402Z,8.70
2018-07-24T10:06:31.753Z,9.03
2018-07-24T10:09:00.383Z,9.05
2018-07-24T10:11:31.879Z,8.50
2018-07-24T10:14:00.414Z,8.78
2018-07-24T10:16:28.979Z,9.28
2018-07-24T10:18:57.647Z,8.50
2018-07-24T10:21:26.232Z,8.33
2018-07-24T10:23:54.796Z,8.80
2018-07-24T10:26:23.273Z,8.88
2018-07-24T10:28:52.474Z,8.57
2018-07-24T10:31:21.083Z,9.00
2018-07-24T10:33:49.652Z,8.40
2018-07-24T10:36:18.157Z,8.70
2018-07-24T10:38:46.735Z,8.30
2018-07-24T10:41:15.389Z,8.50
2018-07-24T10:43:43.924Z,8.43
2018-07-24T10:46:12.534Z,8.45
2018-07-24T10:48:40.744Z,8.10
2018-07-24T10:51:09.391Z,8.00
2018-07-24T10:53:37.894Z,7.83
2018-07-24T10:56:06.667Z,7.90
2018-07-24T10:58:34.839Z,8.45
2018-07-24T11:01:03.085Z,8.13
2018-07-24T11:03:31.621Z,7.92
2018-07-24T11:06:00.182Z,8.83
2018-07-24T11:08:28.771Z,8.60
2018-07-24T11:10:57.473Z,8.30
2018-07-24T11:13:25.982Z,8.93
2018-07-24T11:15:54.771Z,7.97
2018-07-24T11:18:23.548Z,8.00
2018-07-24T11:20:52.162Z,8.10
2018-07-24T11:23:20.870Z,8.75
2018-07-24T11:25:49.653Z,8.53
2018-07-24T11:28:17.996Z,8.10
2018-07-24T11:30:46.537Z,8.53
2018-07-24T11:33:15.341Z,8.47
2018-07-24T11:35:44.043Z,8.10
2018-07-24T11:38:12.580Z,8.70
2018-07-24T11:40:41.520Z,8.85
2018-07-24T11:43:10.107Z,8.73
2018-07-24T11:45:38.865Z,8.80
2018-07-24T11:48:07.543Z,8.73
2018-07-24T11:50:36.039Z,8.68
2018-07-24T11:53:04.630Z,8.60
2018-07-24T11:55:33.421Z,8.43
2018-07-24T11:58:01.983Z,8.40
2018-07-24T12:00:30.508Z,8.40
2018-07-24T12:02:59.096Z,8.83
2018-07-24T12:05:27.672Z,8.50
2018-07-24T12:07:56.256Z,8.73
2018-07-24T12:10:24.748Z,8.63
2018-07-24T12:12:53.019Z,8.60
2018-07-24T12:15:21.574Z,8.40
2018-07-24T12:17:50.193Z,7.40
2018-07-24T12:20:18.896Z,8.38
2018-07-24T12:22:47.423Z,7.90
2018-07-24T12:25:16.080Z,7.80
2018-07-24T12:27:44.649Z,8.03
2018-07-24T12:30:13.149Z,8.15
2018-07-24T12:32:41.716Z,7.60
2018-07-24T12:35:10.324Z,8.03
2018-07-24T12:37:39.117Z,8.00
2018-07-24T12:40:07.849Z,8.13
2018-07-24T12:42:36.527Z,7.40
2018-07-24T12:45:05.447Z,6.40
2018-07-24T12:47:34.100Z,6.50
2018-07-24T12:50:02.620Z,6.10
2018-07-24T12:52:31.355Z,6.50
2018-07-24T12:54:59.571Z,7.58
2018-07-24T12:57:28.494Z,7.50
2018-07-24T12:59:57.157Z,7.40
2018-07-24T13:02:25.746Z,8.20
2018-07-24T13:04:54.568Z,7.22
2018-07-24T13:07:23.193Z,7.40
2018-07-24T13:09:51.990Z,7.70
2018-07-24T13:12:20.528Z,7.62
2018-07-24T13:14:49.108Z,7.10
2018-07-24T13:17:17.903Z,7.30
2018-07-24T13:19:46.560Z,7.67
2018-07-24T13:22:15.124Z,7.50
2018-07-24T13:24:43.844Z,6.80
2018-07-24T13:27:12.870Z,6.90
2018-07-24T13:29:41.480Z,6.87
2018-07-24T13:32:10.171Z,6.20
2018-07-24T13:34:38.691Z,6.72
2018-07-24T13:37:07.401Z,6.50
2018-07-24T13:39:35.954Z,6.85
2018-07-24T13:42:04.630Z,6.90
2018-07-24T13:44:33.306Z,8.70
2018-07-24T14:14:10.819Z,6.65
2018-07-24T14:16:39.458Z,6.90
2018-07-24T14:19:08.500Z,6.87
2018-07-24T14:21:37.037Z,7.17
2018-07-24T14:24:05.792Z,6.30
2018-07-24T14:26:34.316Z,7.10
2018-07-24T14:29:03.263Z,6.83
2018-07-24T14:31:31.847Z,7.10
2018-07-24T14:34:00.519Z,6.83
2018-07-24T14:36:30.001Z,6.30
2018-07-24T14:38:58.688Z,6.37
2018-07-24T14:41:27.562Z,6.17
2018-07-24T14:43:56.227Z,7.00
2018-07-24T14:46:24.887Z,6.08
2018-07-24T14:48:53.624Z,5.97
2018-07-24T14:51:22.280Z,6.70
2018-07-24T14:53:50.876Z,6.10
2018-07-24T14:56:19.578Z,6.37
2018-07-24T14:58:48.190Z,6.00
2018-07-24T15:01:16.792Z,5.60
2018-07-24T15:03:45.441Z,6.78
2018-07-24T15:06:14.203Z,6.78
2018-07-24T15:08:42.731Z,6.60
2018-07-24T15:11:11.264Z,5.95
2018-07-24T15:13:39.967Z,6.50
2018-07-24T15:16:08.728Z,6.58
2018-07-24T15:18:37.343Z,6.53
2018-07-24T15:21:05.995Z,6.42
2018-07-24T15:23:34.595Z,6.47
2018-07-24T15:26:03.294Z,6.93
2018-07-24T15:28:32.051Z,5.70
2018-07-24T15:31:00.733Z,6.35
2018-07-24T15:33:29.339Z,6.20
2018-07-24T15:35:57.944Z,6.22
2018-07-24T15:38:26.516Z,5.67
2018-07-24T15:40:55.092Z,6.00
2018-07-24T15:43:23.674Z,6.37
2018-07-24T15:45:52.401Z,5.83
2018-07-24T15:48:21.021Z,5.50
2018-07-24T15:50:49.588Z,5.60
2018-07-24T16:20:25.289Z,6.27
2018-07-24T16:22:53.946Z,6.00
2018-07-24T16:25:22.635Z,6.37
2018-07-24T16:27:51.275Z,6.10
2018-07-24T16:30:19.992Z,6.10
2018-07-24T16:32:48.527Z,5.80
2018-07-24T16:35:17.135Z,5.65
2018-07-24T16:37:45.944Z,5.90
2018-07-24T16:40:14.744Z,6.15
2018-07-24T16:42:43.361Z,6.03
2018-07-24T16:45:12.072Z,6.37
2018-07-24T16:47:40.784Z,6.50
2018-07-24T16:50:09.516Z,6.50
2018-07-24T16:52:38.140Z,6.60
2018-07-24T16:55:06.732Z,6.00
2018-07-24T16:57:35.636Z,6.20
2018-07-24T17:00:05.022Z,5.70
2018-07-24T17:02:33.616Z,6.70
2018-07-24T17:05:02.281Z,6.22
2018-07-24T17:07:31.114Z,6.40
2018-07-24T17:09:59.849Z,6.08
2018-07-24T17:12:28.488Z,5.67
2018-07-24T17:14:57.270Z,5.70
2018-07-24T17:17:26.064Z,5.50
2018-07-24T17:19:55.037Z,6.20
2018-07-24T17:22:24.068Z,5.80
2018-07-24T17:24:52.646Z,6.00
2018-07-24T17:27:21.318Z,6.00
2018-07-24T17:29:50.307Z,6.20
2018-07-24T17:32:19.056Z,5.30
2018-07-24T17:34:48.065Z,5.83
2018-07-24T17:37:16.804Z,6.43
2018-07-24T17:39:45.386Z,5.80
2018-07-24T17:42:14.347Z,6.00
2018-07-24T17:44:43.202Z,6.40
2018-07-24T17:47:12.000Z,6.22
2018-07-24T17:49:40.714Z,5.97
2018-07-24T17:52:09.420Z,6.67
2018-07-24T17:54:38.052Z,6.50
2018-07-24T17:57:06.843Z,6.00
2018-07-24T17:59:35.541Z,6.00
2018-07-24T18:02:04.400Z,5.83
2018-07-24T18:04:33.374Z,6.20
2018-07-24T18:07:02.206Z,6.30
2018-07-24T18:09:31.179Z,6.45
2018-07-24T18:11:59.839Z,6.10
2018-07-24T18:14:28.470Z,6.53
2018-07-24T18:16:57.552Z,6.67
2018-07-24T18:19:26.338Z,7.20
2018-07-24T18:21:54.984Z,6.90
2018-07-24T18:24:23.738Z,7.60
2018-07-24T18:26:52.718Z,7.10
2018-07-24T18:29:21.583Z,7.05
2018-07-24T18:31:50.354Z,6.87
2018-07-24T18:34:19.266Z,6.60
2018-07-24T18:36:48.082Z,7.37
2018-07-24T18:39:16.865Z,7.50
2018-07-24T18:41:45.791Z,7.42
2018-07-24T18:44:14.594Z,6.90
2018-07-24T18:46:43.417Z,8.00
2018-07-24T18:49:12.068Z,7.05
2018-07-24T18:51:40.857Z,7.58
2018-07-24T18:54:09.816Z,7.60
2018-07-24T18:56:38.637Z,8.18
2018-07-24T18:59:07.862Z,8.23
2018-07-24T19:01:36.612Z,8.50
2018-07-24T19:04:05.444Z,7.65
2018-07-24T19:06:34.355Z,7.50
2018-07-24T19:09:03.334Z,7.33
2018-07-24T19:11:32.227Z,8.20
2018-07-24T19:14:00.985Z,7.53
2018-07-24T19:16:29.778Z,7.80
2018-07-24T19:18:58.531Z,8.28
2018-07-24T19:21:27.728Z,8.50
2018-07-24T19:23:56.687Z,8.03
2018-07-24T19:26:25.754Z,8.40
2018-07-24T19:28:54.445Z,7.35
2018-07-24T19:31:23.222Z,7.95
2018-07-24T19:33:52.121Z,7.70
2018-07-24T19:36:21.223Z,8.25
2018-07-24T19:38:49.961Z,8.88
2018-07-24T19:41:18.683Z,9.58
2018-07-24T19:43:47.390Z,9.23
2018-07-24T19:46:15.983Z,9.05
2018-07-24T19:48:44.877Z,9.60
2018-07-24T19:51:14.212Z,9.90
2018-07-24T19:53:43.272Z,9.25
2018-07-24T19:56:12.084Z,8.63
2018-07-24T19:58:40.690Z,8.97
2018-07-24T20:01:09.513Z,9.60
2018-07-24T20:03:38.395Z,9.63
2018-07-24T20:06:07.800Z,10.90
2018-07-24T20:08:37.002Z,9.75
2018-07-24T20:11:06.063Z,10.05
2018-07-24T20:13:35.706Z,10.43
2018-07-24T20:16:04.552Z,10.45
2018-07-24T20:18:33.264Z,10.33
2018-07-24T20:21:02.381Z,10.50
2018-07-24T20:23:31.092Z,10.38
2018-07-24T20:25:59.698Z,10.30
2018-07-24T20:28:28.946Z,9.95
2018-07-24T20:30:57.817Z,10.43
2018-07-24T20:33:26.454Z,10.07
2018-07-24T20:35:55.321Z,10.20
2018-07-24T20:38:24.755Z,10.93
2018-07-24T20:40:53.723Z,10.15
2018-07-24T20:43:22.618Z,10.70
2018-07-24T20:45:51.730Z,12.30
2018-07-24T20:48:20.395Z,11.30
2018-07-24T20:50:49.134Z,10.70
2018-07-24T20:53:18.313Z,10.63
2018-07-24T20:55:50.922Z,10.60
2018-07-24T20:58:20.004Z,10.98
2018-07-24T21:00:48.681Z,10.08
2018-07-24T21:03:17.353Z,10.18
2018-07-24T21:05:46.276Z,9.75
2018-07-24T21:08:14.909Z,10.87
2018-07-24T21:10:43.635Z,11.30
2018-07-24T21:13:12.646Z,10.30
2018-07-24T21:15:41.339Z,10.60
2018-07-24T21:18:10.288Z,11.17
2018-07-24T21:20:38.937Z,10.90
2018-07-24T21:23:07.914Z,11.28
2018-07-24T21:25:36.601Z,11.45
2018-07-24T21:28:05.528Z,10.88
2018-07-24T21:30:34.176Z,12.50
2018-07-24T21:33:03.193Z,11.60
2018-07-24T21:35:31.888Z,11.25
2018-07-24T21:38:00.573Z,11.65
2018-07-24T21:40:29.251Z,11.30
2018-07-24T21:42:57.895Z,11.80
2018-07-24T21:45:26.578Z,11.05
2018-07-24T21:47:55.161Z,10.70
2018-07-24T21:50:23.891Z,10.85
2018-07-24T21:52:53.078Z,11.80
2018-07-24T21:55:21.887Z,11.80
2018-07-24T21:57:50.748Z,11.80
2018-07-24T22:00:19.655Z,12.98
2018-07-24T22:02:48.326Z,12.82
2018-07-24T22:05:16.916Z,13.63
2018-07-24T22:07:45.707Z,13.85
2018-07-24T22:10:19.532Z,13.70
2018-07-24T22:12:47.712Z,13.72
2018-07-24T22:15:24.261Z,14.47
2018-07-24T22:17:53.222Z,13.60
2018-07-24T22:20:22.262Z,15.25
2018-07-24T22:22:51.517Z,15.28
2018-07-24T22:25:20.310Z,15.20
2018-07-24T22:27:49.085Z,15.70
2018-07-24T22:30:17.700Z,14.05
2018-07-24T22:32:46.483Z,16.02
2018-07-24T22:35:15.144Z,16.60
2018-07-24T22:37:43.787Z,15.72
2018-07-24T22:40:12.828Z,16.50
2018-07-24T22:42:41.669Z,17.10
2018-07-24T22:45:10.248Z,16.67
2018-07-24T22:47:38.809Z,18.07
2018-07-24T22:50:07.550Z,17.57
2018-07-24T22:52:36.268Z,17.10
2018-07-24T22:55:04.931Z,17.80
2018-07-24T22:57:33.660Z,17.82
2018-07-24T23:00:02.327Z,18.23
2018-07-24T23:02:30.526Z,18.67
2018-07-24T23:04:59.309Z,19.07
2018-07-24T23:07:27.988Z,19.33
2018-07-24T23:09:56.663Z,19.25
2018-07-24T23:12:25.349Z,19.82
2018-07-24T23:14:54.001Z,19.07
2018-07-24T23:17:22.851Z,19.15
2018-07-24T23:19:51.616Z,18.92
2018-07-24T23:22:20.175Z,19.32
2018-07-24T23:24:48.732Z,21.27
2018-07-24T23:27:17.371Z,21.52
2018-07-24T23:29:45.877Z,20.72
2018-07-24T23:32:14.444Z,21.20
2018-07-24T23:34:42.941Z,21.25
2018-07-24T23:37:11.578Z,20.15
2018-07-24T23:39:40.135Z,20.97
2018-07-24T23:42:09.010Z,20.45
2018-07-24T23:44:37.743Z,20.50
2018-07-24T23:47:06.241Z,20.40
2018-07-24T23:49:35.028Z,19.73
2018-07-24T23:52:03.602Z,20.45
2018-07-24T23:54:32.217Z,19.40
2018-07-24T23:57:00.923Z,19.60
2018-07-24T23:59:29.556Z,19.85
